CVD weather

Redland Hospital Helicopter Landing Site
Cleveland, Queensland, Australia

Public forecast

Using degrees Celsius for public forecast. Weather courtesy of forecast.io.

Closest aviation weather report (METAR) to Redland Hospital Helicopter Landing Site

Closest report is Brisbane International Airport, 11.8 nm (21.9 km) NW. Retrieved 2020/03/31 23:00 UTC (8 minutes ago):

YBBN 312300Z 17008KT 9999 FEW030 26/18 Q1017 NOSIG

Closest aviation forecast (TAF) to Redland Hospital Helicopter Landing Site

Closest forecast is Brisbane International Airport, 11.8 nm (21.9 km) NW. Retrieved 2020/03/31 18:00 UTC (5 hours ago):

TAF YBBN 311724Z 3118/0200 20005KT 9999 SCT018 FM010000 13012KT 9999 FEW035 FM011200 18007KT 9999 SCT020